createdAt,value
2023-03-05T00:01:37.402Z,5.93
2023-03-05T00:04:07.277Z,5.97
2023-03-05T00:06:35.890Z,6.00
2023-03-05T00:09:17.492Z,7.03
2023-03-05T00:11:47.973Z,6.00
2023-03-05T00:14:16.488Z,7.63
2023-03-05T00:16:45.126Z,7.23
2023-03-05T00:19:17.049Z,5.10
2023-03-05T00:21:45.547Z,6.30
2023-03-05T00:24:15.329Z,5.47
2023-03-05T00:26:47.674Z,6.30
2023-03-05T00:29:19.526Z,6.20
2023-03-05T00:31:48.069Z,6.20
2023-03-05T00:34:17.577Z,5.33
2023-03-05T00:36:47.123Z,6.40
2023-03-05T00:39:17.518Z,7.87
2023-03-05T00:41:45.991Z,5.20
2023-03-05T00:44:14.706Z,7.80
2023-03-05T00:46:46.010Z,6.57
2023-03-05T00:49:14.658Z,6.13
2023-03-05T00:51:43.481Z,6.70
2023-03-05T00:54:12.873Z,7.47
2023-03-05T00:56:41.419Z,6.83
2023-03-05T00:59:10.342Z,6.97
2023-03-05T01:01:39.424Z,7.30
2023-03-05T01:04:09.460Z,7.70
2023-03-05T01:06:42.970Z,6.97
2023-03-05T01:09:11.844Z,5.00
2023-03-05T01:11:40.302Z,6.00
2023-03-05T01:14:09.129Z,6.07
2023-03-05T01:16:37.566Z,6.03
2023-03-05T01:19:06.194Z,8.07
2023-03-05T01:21:36.525Z,5.50
2023-03-05T01:24:05.253Z,6.80
2023-03-05T01:26:33.781Z,6.47
2023-03-05T01:29:02.214Z,7.20
2023-03-05T01:31:30.784Z,6.10
2023-03-05T01:34:00.256Z,6.20
2023-03-05T01:36:42.640Z,5.63
2023-03-05T01:39:11.243Z,5.67
2023-03-05T01:41:39.651Z,6.20
2023-03-05T01:44:08.054Z,6.83
2023-03-05T01:46:36.667Z,5.80
2023-03-05T01:49:13.996Z,5.70
2023-03-05T01:51:46.440Z,5.37
2023-03-05T01:54:17.342Z,7.20
2023-03-05T01:56:46.180Z,7.57
2023-03-05T01:59:15.954Z,6.23
2023-03-05T02:01:46.012Z,5.63
2023-03-05T02:04:16.638Z,6.93
2023-03-05T02:06:46.841Z,6.50
2023-03-05T02:09:15.335Z,6.77
2023-03-05T02:11:44.257Z,6.77
2023-03-05T02:14:13.413Z,7.20
2023-03-05T02:16:42.119Z,7.00
2023-03-05T02:19:12.152Z,5.60
2023-03-05T02:21:43.230Z,8.10
2023-03-05T02:24:15.474Z,6.40
2023-03-05T02:26:45.084Z,7.80
2023-03-05T02:29:15.203Z,7.37
2023-03-05T02:31:44.091Z,7.40
2023-03-05T02:34:12.528Z,6.00
2023-03-05T02:36:42.272Z,5.97
2023-03-05T02:39:11.003Z,6.07
2023-03-05T02:41:39.880Z,7.70
2023-03-05T02:44:08.446Z,5.53
2023-03-05T02:46:37.082Z,5.40
2023-03-05T02:49:05.916Z,7.10
2023-03-05T02:51:34.474Z,6.30
2023-03-05T02:54:04.459Z,5.70
2023-03-05T02:56:33.236Z,7.80
2023-03-05T02:59:01.745Z,7.33
2023-03-05T03:01:30.344Z,5.23
2023-03-05T03:03:59.313Z,6.20
2023-03-05T03:06:27.862Z,5.93
2023-03-05T03:08:56.382Z,5.97
2023-03-05T03:11:26.466Z,6.40
2023-03-05T03:13:54.907Z,5.33
2023-03-05T03:16:23.325Z,5.80
2023-03-05T03:18:51.824Z,4.90
2023-03-05T03:21:25.804Z,6.00
2023-03-05T03:23:54.364Z,5.57
2023-03-05T03:26:22.867Z,5.50
2023-03-05T03:28:53.077Z,5.83
2023-03-05T03:31:21.674Z,6.10
2023-03-05T03:33:50.317Z,3.97
2023-03-05T03:36:18.978Z,5.60
2023-03-05T03:38:47.430Z,4.87
2023-03-05T03:41:15.829Z,5.23
2023-03-05T03:43:44.782Z,6.03
2023-03-05T03:46:14.730Z,5.23
2023-03-05T03:48:43.207Z,7.37
2023-03-05T03:51:12.220Z,5.23
2023-03-05T03:53:41.159Z,5.50
2023-03-05T03:56:09.760Z,5.90
2023-03-05T03:58:38.396Z,6.93
2023-03-05T04:01:07.003Z,6.03
2023-03-05T04:03:37.099Z,7.10
2023-03-05T04:06:07.090Z,5.57
2023-03-05T04:08:35.428Z,7.30
2023-03-05T04:11:04.207Z,5.33
2023-03-05T04:13:33.175Z,6.40
2023-03-05T04:16:01.569Z,4.53
2023-03-05T04:18:32.436Z,5.00
2023-03-05T04:21:02.464Z,6.17
2023-03-05T04:23:30.928Z,5.23
2023-03-05T04:25:59.418Z,6.97
2023-03-05T04:28:28.038Z,6.13
2023-03-05T04:30:56.697Z,6.43
2023-03-05T04:33:25.354Z,7.37
2023-03-05T04:35:55.902Z,4.70
2023-03-05T04:38:25.874Z,5.83
2023-03-05T04:40:54.239Z,4.90
2023-03-05T04:43:23.016Z,5.80
2023-03-05T04:45:51.589Z,5.57
2023-03-05T04:48:20.236Z,5.03
2023-03-05T04:50:48.798Z,5.60
2023-03-05T04:53:18.378Z,6.00
2023-03-05T04:55:48.237Z,5.40
2023-03-05T04:58:16.625Z,4.73
2023-03-05T05:00:45.118Z,6.97
2023-03-05T05:03:13.887Z,5.73
2023-03-05T05:05:42.413Z,5.90
2023-03-05T05:08:12.019Z,4.73
2023-03-05T05:10:41.388Z,5.57
2023-03-05T05:13:11.278Z,7.17
2023-03-05T05:15:41.949Z,6.87
2023-03-05T05:18:10.444Z,4.70
2023-03-05T05:20:39.209Z,5.87
2023-03-05T05:23:07.899Z,4.70
2023-03-05T05:25:36.365Z,4.73
2023-03-05T05:28:09.931Z,6.20
2023-03-05T05:30:40.221Z,6.30
2023-03-05T05:33:08.746Z,5.37
2023-03-05T05:35:41.139Z,6.37
2023-03-05T05:38:09.986Z,5.07
2023-03-05T05:40:38.580Z,7.07
2023-03-05T05:43:07.206Z,5.73
2023-03-05T05:45:35.665Z,6.13
2023-03-05T05:48:05.810Z,6.47
2023-03-05T05:50:34.377Z,5.80
2023-03-05T05:53:02.985Z,6.80
2023-03-05T05:55:31.466Z,5.70
2023-03-05T05:57:59.840Z,5.70
2023-03-05T06:00:28.379Z,5.87
2023-03-05T06:02:56.800Z,6.83
2023-03-05T06:05:27.014Z,6.03
2023-03-05T06:07:55.538Z,6.63
2023-03-05T06:10:23.913Z,7.00
2023-03-05T06:12:52.397Z,6.40
2023-03-05T06:15:21.301Z,7.10
2023-03-05T06:17:49.771Z,6.40
2023-03-05T06:20:18.511Z,5.53
2023-03-05T06:22:48.387Z,6.60
2023-03-05T06:25:16.836Z,6.87
2023-03-05T06:27:45.291Z,7.20
2023-03-05T06:30:14.243Z,6.33
2023-03-05T06:32:42.642Z,4.70
2023-03-05T06:35:11.811Z,4.97
2023-03-05T06:37:58.987Z,5.10
2023-03-05T06:40:28.906Z,6.30
2023-03-05T06:42:57.281Z,5.73
2023-03-05T06:45:25.652Z,7.10
2023-03-05T06:47:54.080Z,5.43
2023-03-05T06:50:22.511Z,4.70
2023-03-05T06:52:51.414Z,5.00
2023-03-05T06:55:20.292Z,4.80
2023-03-05T06:57:50.357Z,4.40
2023-03-05T07:00:19.146Z,5.43
2023-03-05T07:02:47.971Z,5.93
2023-03-05T07:05:16.454Z,5.83
2023-03-05T07:07:44.930Z,6.60
2023-03-05T07:10:13.865Z,4.80
2023-03-05T07:12:43.562Z,4.00
2023-03-05T07:15:14.135Z,5.40
2023-03-05T07:17:42.782Z,6.10
2023-03-05T07:20:12.076Z,5.20
2023-03-05T07:22:40.680Z,5.93
2023-03-05T07:25:09.488Z,6.10
2023-03-05T07:27:38.723Z,5.57
2023-03-05T07:30:09.632Z,6.50
2023-03-05T07:32:39.698Z,5.43
2023-03-05T07:35:09.052Z,6.23
2023-03-05T07:37:37.549Z,4.90
2023-03-05T07:40:06.915Z,5.27
2023-03-05T07:42:35.895Z,5.70
2023-03-05T07:45:04.313Z,6.50
2023-03-05T07:47:32.693Z,5.40
2023-03-05T07:50:02.738Z,6.53
2023-03-05T07:52:31.487Z,6.60
2023-03-05T07:55:00.090Z,4.77
2023-03-05T07:57:28.908Z,7.20
2023-03-05T07:59:58.142Z,6.23
2023-03-05T08:02:26.735Z,5.40
2023-03-05T08:04:55.291Z,5.43
2023-03-05T08:07:25.356Z,5.30
2023-03-05T08:09:53.745Z,5.70
2023-03-05T08:12:23.147Z,5.50
2023-03-05T08:14:52.147Z,5.93
2023-03-05T08:17:20.599Z,5.30
2023-03-05T08:19:49.460Z,6.37
2023-03-05T08:22:20.490Z,5.97
2023-03-05T08:24:50.813Z,7.70
2023-03-05T08:27:19.274Z,6.50
2023-03-05T08:29:47.794Z,5.50
2023-03-05T08:32:16.520Z,7.73
2023-03-05T08:34:45.184Z,6.30
2023-03-05T08:37:13.577Z,4.90
2023-03-05T08:39:42.504Z,5.93
2023-03-05T08:42:20.760Z,5.60
2023-03-05T08:44:49.716Z,6.37
2023-03-05T08:47:18.815Z,5.00
2023-03-05T08:49:47.142Z,5.10
2023-03-05T08:52:15.494Z,5.00
2023-03-05T08:54:44.106Z,6.07
2023-03-05T08:57:12.637Z,6.27
2023-03-05T08:59:42.622Z,5.07
2023-03-05T09:02:19.153Z,4.63
2023-03-05T09:04:47.584Z,4.90
2023-03-05T09:07:17.980Z,6.17
2023-03-05T09:09:46.485Z,6.17
2023-03-05T09:12:23.336Z,6.30
2023-03-05T09:14:56.047Z,5.70
2023-03-05T09:17:24.790Z,4.93
2023-03-05T09:19:53.372Z,5.20
2023-03-05T09:22:25.796Z,5.70
2023-03-05T09:24:54.315Z,6.53
2023-03-05T09:27:22.715Z,5.00
2023-03-05T09:29:53.082Z,5.33
2023-03-05T09:32:23.123Z,7.90
2023-03-05T09:34:58.819Z,5.80
2023-03-05T09:37:27.932Z,6.10
2023-03-05T09:39:56.401Z,6.67
2023-03-05T09:42:41.024Z,6.60
2023-03-05T09:45:16.343Z,5.47
2023-03-05T09:47:51.859Z,6.07
2023-03-05T09:50:32.526Z,5.70
2023-03-05T09:53:06.035Z,6.90
2023-03-05T09:55:37.288Z,7.87
2023-03-05T09:58:08.044Z,6.10
2023-03-05T10:00:37.840Z,6.47
2023-03-05T10:03:09.001Z,6.30
2023-03-05T10:05:48.288Z,6.30
2023-03-05T10:08:28.466Z,6.00
2023-03-05T10:11:07.182Z,5.40
2023-03-05T10:13:39.599Z,6.20
2023-03-05T10:16:26.896Z,6.27
2023-03-05T10:19:00.750Z,6.30
2023-03-05T10:21:32.936Z,6.23
2023-03-05T10:24:11.174Z,6.30
2023-03-05T10:26:46.485Z,6.40
2023-03-05T10:29:24.782Z,5.77
2023-03-05T10:31:58.484Z,6.33
2023-03-05T10:34:48.452Z,4.97
2023-03-05T10:37:31.847Z,6.20
2023-03-05T10:40:09.732Z,5.47
2023-03-05T10:42:43.349Z,6.40
2023-03-05T10:45:16.808Z,5.90
2023-03-05T10:47:53.923Z,6.70
2023-03-05T10:50:24.249Z,6.97
2023-03-05T10:52:54.634Z,6.90
2023-03-05T10:55:25.125Z,6.53
2023-03-05T10:57:53.998Z,6.37
2023-03-05T11:00:23.324Z,6.07
2023-03-05T11:02:56.232Z,6.03
2023-03-05T11:05:48.621Z,5.60
2023-03-05T11:08:24.739Z,5.33
2023-03-05T11:11:06.234Z,5.20
2023-03-05T11:13:35.475Z,5.80
2023-03-05T11:16:05.717Z,5.40
2023-03-05T11:18:35.503Z,7.17
2023-03-05T11:21:12.169Z,4.47
2023-03-05T11:23:40.781Z,6.83
2023-03-05T11:26:20.424Z,5.23
2023-03-05T11:28:58.325Z,6.07
2023-03-05T11:31:27.900Z,6.80
2023-03-05T11:33:57.685Z,4.90
2023-03-05T11:36:27.584Z,5.40
2023-03-05T11:38:57.735Z,5.90
2023-03-05T11:41:33.242Z,5.67
2023-03-05T11:44:05.760Z,6.00
2023-03-05T11:46:40.009Z,6.00
2023-03-05T11:49:09.596Z,6.00
2023-03-05T11:51:42.765Z,4.80
2023-03-05T11:54:14.860Z,6.90
2023-03-05T11:56:46.353Z,6.13
2023-03-05T11:59:16.518Z,6.17
2023-03-05T12:01:47.047Z,5.90
2023-03-05T12:04:15.817Z,5.40
2023-03-05T12:06:46.158Z,5.47
2023-03-05T12:09:17.797Z,5.07
2023-03-05T12:12:10.226Z,5.80
2023-03-05T12:14:43.648Z,5.87
2023-03-05T12:17:15.947Z,4.37
2023-03-05T12:19:50.093Z,5.43
2023-03-05T12:22:19.801Z,5.07
2023-03-05T12:24:48.174Z,4.30
2023-03-05T12:27:17.891Z,4.73
2023-03-05T12:29:49.223Z,5.97
2023-03-05T12:32:36.621Z,4.73
2023-03-05T12:35:06.310Z,4.57
2023-03-05T12:37:54.129Z,5.40
2023-03-05T12:40:24.053Z,5.17
2023-03-05T12:42:56.761Z,4.83
2023-03-05T12:45:31.845Z,4.57
2023-03-05T12:48:19.251Z,4.23
2023-03-05T12:51:01.599Z,4.30
2023-03-05T12:53:30.337Z,3.90
2023-03-05T12:56:03.904Z,5.13
2023-03-05T12:58:38.541Z,4.33
2023-03-05T13:01:22.645Z,4.97
2023-03-05T13:03:58.410Z,4.70
2023-03-05T13:06:34.663Z,4.20
2023-03-05T13:09:04.539Z,4.30
2023-03-05T13:11:35.789Z,4.57
2023-03-05T13:14:05.047Z,4.37
2023-03-05T13:16:41.442Z,4.37
2023-03-05T13:19:17.433Z,4.87
2023-03-05T13:21:45.814Z,4.20
2023-03-05T13:24:19.334Z,4.47
2023-03-05T13:26:47.897Z,4.67
2023-03-05T13:29:16.949Z,4.73
2023-03-05T13:31:48.529Z,5.60
2023-03-05T13:34:18.507Z,4.83
2023-03-05T13:36:48.247Z,4.37
2023-03-05T13:39:22.391Z,5.27
2023-03-05T13:42:01.162Z,4.97
2023-03-05T13:44:30.970Z,4.10
2023-03-05T13:47:17.935Z,4.00
2023-03-05T13:49:47.931Z,4.30
2023-03-05T13:52:25.801Z,4.90
2023-03-05T13:54:54.868Z,4.73
2023-03-05T13:57:35.016Z,4.93
2023-03-05T14:00:03.509Z,5.63
2023-03-05T14:02:33.748Z,4.50
2023-03-05T14:05:02.842Z,4.93
2023-03-05T14:07:34.649Z,4.27
2023-03-05T14:10:03.938Z,4.10
2023-03-05T14:12:36.174Z,5.13
2023-03-05T14:15:07.615Z,4.90
2023-03-05T14:17:43.173Z,4.37
2023-03-05T14:20:24.748Z,4.17
2023-03-05T14:22:56.937Z,4.03
2023-03-05T14:25:46.478Z,5.00
2023-03-05T14:28:24.278Z,5.10
2023-03-05T14:30:55.423Z,4.53
2023-03-05T14:33:26.008Z,4.43
2023-03-05T14:35:55.590Z,3.70
2023-03-05T14:38:25.881Z,4.47
2023-03-05T14:40:57.889Z,5.90
2023-03-05T14:43:26.513Z,5.47
2023-03-05T14:45:55.166Z,4.90
2023-03-05T14:48:25.348Z,5.17
2023-03-05T14:51:02.445Z,4.20
2023-03-05T14:53:34.503Z,4.70
2023-03-05T14:56:03.314Z,5.70
2023-03-05T14:58:35.815Z,3.67
2023-03-05T15:01:14.153Z,4.50
2023-03-05T15:03:44.432Z,4.90
2023-03-05T15:06:18.151Z,5.23
2023-03-05T15:08:46.824Z,5.03
2023-03-05T15:11:22.687Z,5.43
2023-03-05T15:14:06.628Z,5.00
2023-03-05T15:16:40.396Z,5.73
2023-03-05T15:19:11.474Z,4.53
2023-03-05T15:21:42.447Z,4.70
2023-03-05T15:24:11.689Z,4.80
2023-03-05T15:26:46.197Z,4.07
2023-03-05T15:29:15.045Z,3.90
2023-03-05T15:31:43.573Z,4.03
2023-03-05T15:34:16.439Z,4.30
2023-03-05T15:36:44.826Z,4.50
2023-03-05T15:39:13.798Z,4.73
2023-03-05T15:41:42.527Z,3.57
2023-03-05T15:44:11.239Z,4.33
2023-03-05T15:46:40.025Z,3.87
2023-03-05T15:49:09.004Z,3.80
2023-03-05T15:51:47.503Z,3.90
2023-03-05T15:54:16.294Z,4.23
2023-03-05T15:56:45.084Z,3.30
2023-03-05T15:59:14.656Z,3.07
2023-03-05T16:01:46.777Z,4.43
2023-03-05T16:04:15.676Z,4.20
2023-03-05T16:06:46.718Z,3.43
2023-03-05T16:09:23.470Z,3.00
2023-03-05T16:11:52.048Z,3.27
2023-03-05T16:14:23.482Z,2.83
2023-03-05T16:16:52.862Z,2.23
2023-03-05T16:19:21.576Z,2.43
2023-03-05T16:21:51.437Z,3.93
2023-03-05T16:24:19.987Z,3.37
2023-03-05T16:26:55.605Z,2.60
2023-03-05T16:29:24.289Z,2.70
2023-03-05T16:31:53.092Z,2.70
2023-03-05T16:34:21.531Z,3.00
2023-03-05T16:36:52.903Z,2.33
2023-03-05T16:39:22.040Z,2.83
2023-03-05T16:41:52.666Z,3.23
2023-03-05T16:44:31.697Z,2.80
2023-03-05T16:47:00.312Z,2.70
2023-03-05T16:49:28.769Z,4.17
2023-03-05T16:52:03.499Z,2.73
2023-03-05T16:54:41.489Z,2.43
2023-03-05T16:57:11.083Z,2.43
2023-03-05T16:59:39.744Z,3.37
2023-03-05T17:02:08.514Z,2.40
2023-03-05T17:04:37.165Z,3.30
2023-03-05T17:07:07.149Z,3.43
2023-03-05T17:09:35.767Z,2.53
2023-03-05T17:12:05.379Z,3.57
2023-03-05T17:14:34.147Z,3.03
2023-03-05T17:17:02.682Z,3.27
2023-03-05T17:19:32.082Z,3.00
2023-03-05T17:22:02.742Z,2.20
2023-03-05T17:24:34.398Z,3.60
2023-03-05T17:27:02.974Z,3.10
2023-03-05T17:30:20.897Z,2.97
2023-03-05T17:32:49.451Z,3.00
2023-03-05T17:35:19.444Z,3.50
2023-03-05T17:37:48.268Z,3.57
2023-03-05T17:40:18.417Z,2.80
2023-03-05T17:42:47.438Z,2.67
2023-03-05T17:45:15.920Z,2.60
2023-03-05T17:47:44.440Z,2.53
2023-03-05T17:50:14.993Z,2.87
2023-03-05T17:52:43.751Z,3.17
2023-03-05T17:55:14.954Z,2.90
2023-03-05T17:57:47.659Z,3.43
2023-03-05T18:00:17.868Z,3.20
2023-03-05T18:02:46.408Z,3.20
2023-03-05T18:05:16.491Z,3.20
2023-03-05T18:07:45.429Z,2.67
2023-03-05T18:10:14.884Z,2.47
2023-03-05T18:12:45.538Z,2.67
2023-03-05T18:15:15.458Z,3.00
2023-03-05T18:17:44.201Z,2.80
2023-03-05T18:20:22.267Z,2.73
2023-03-05T18:22:51.818Z,2.20
2023-03-05T18:25:20.650Z,3.17
2023-03-05T18:27:54.682Z,2.77
2023-03-05T18:30:23.791Z,2.60
2023-03-05T18:32:52.933Z,2.17
2023-03-05T18:35:21.734Z,3.03
2023-03-05T18:37:50.802Z,3.00
2023-03-05T18:40:20.665Z,2.60
2023-03-05T18:42:55.120Z,2.83
2023-03-05T18:45:25.249Z,3.03
2023-03-05T18:47:54.422Z,3.10
2023-03-05T18:50:24.719Z,3.50
2023-03-05T18:55:53.689Z,2.90
2023-03-05T18:58:26.000Z,3.80
2023-03-05T19:00:55.206Z,2.50
2023-03-05T19:03:23.942Z,3.73
2023-03-05T19:05:53.192Z,2.70
2023-03-05T19:08:22.713Z,2.37
2023-03-05T19:10:54.229Z,3.50
2023-03-05T19:13:43.237Z,3.27
2023-03-05T19:16:13.096Z,3.57
2023-03-05T19:19:24.538Z,3.07
2023-03-05T19:22:07.840Z,3.23
2023-03-05T19:24:38.136Z,2.53
2023-03-05T19:27:13.206Z,3.40
2023-03-05T19:29:43.642Z,2.90
2023-03-05T19:32:16.154Z,2.80
2023-03-05T19:34:44.991Z,2.80
2023-03-05T19:37:14.088Z,2.23
2023-03-05T19:39:43.042Z,3.70
2023-03-05T19:42:13.494Z,2.70
2023-03-05T19:44:44.480Z,2.90
2023-03-05T19:47:13.624Z,2.53
2023-03-05T19:49:44.259Z,2.77
2023-03-05T19:52:17.864Z,4.50
2023-03-05T19:54:46.256Z,3.30
2023-03-05T19:57:15.290Z,2.43
2023-03-05T19:59:46.879Z,2.77
2023-03-05T20:02:22.064Z,3.53
2023-03-05T20:04:50.849Z,3.40
2023-03-05T20:07:21.269Z,3.47
2023-03-05T20:09:52.013Z,3.00
2023-03-05T20:12:26.267Z,3.60
2023-03-05T20:15:04.897Z,3.13
2023-03-05T20:17:35.787Z,3.00
2023-03-05T20:20:06.394Z,3.07
2023-03-05T20:22:34.969Z,2.53
2023-03-05T20:25:33.037Z,2.97
2023-03-05T20:28:01.942Z,3.53
2023-03-05T20:30:32.169Z,3.07
2023-03-05T20:33:00.935Z,4.00
2023-03-05T20:35:29.540Z,2.90
2023-03-05T20:38:22.372Z,3.33
2023-03-05T20:40:51.890Z,4.37
2023-03-05T20:43:20.422Z,3.83
2023-03-05T20:45:50.929Z,2.80
2023-03-05T20:48:21.629Z,2.63
2023-03-05T20:50:50.417Z,3.73
2023-03-05T20:53:21.278Z,3.07
2023-03-05T20:55:50.226Z,3.53
2023-03-05T20:58:20.788Z,3.47
2023-03-05T21:00:50.923Z,2.70
2023-03-05T21:03:20.910Z,2.63
2023-03-05T21:05:50.693Z,2.80
2023-03-05T21:08:20.831Z,2.80
2023-03-05T21:10:49.453Z,2.90
2023-03-05T21:13:18.456Z,2.90
2023-03-05T21:15:46.892Z,3.60
2023-03-05T21:18:17.036Z,3.30
2023-03-05T21:20:45.757Z,2.63
2023-03-05T21:23:14.273Z,3.33
2023-03-05T21:25:42.784Z,3.73
2023-03-05T21:28:15.301Z,4.03
2023-03-05T21:30:45.821Z,2.77
2023-03-05T21:33:15.069Z,2.90
2023-03-05T21:35:45.662Z,3.47
2023-03-05T21:38:14.948Z,2.83
2023-03-05T21:40:48.541Z,3.50
2023-03-05T21:43:17.875Z,2.40
2023-03-05T21:45:47.803Z,3.17
2023-03-05T21:48:16.688Z,2.67
2023-03-05T21:50:47.447Z,2.90
2023-03-05T21:53:21.225Z,3.30
2023-03-05T21:56:25.113Z,2.70
2023-03-05T21:58:53.991Z,2.80
2023-03-05T22:01:22.743Z,3.30
2023-03-05T22:03:51.978Z,2.80
2023-03-05T22:06:22.349Z,3.10
2023-03-05T22:08:50.956Z,3.20
2023-03-05T22:11:21.095Z,2.87
2023-03-05T22:13:50.076Z,2.83
2023-03-05T22:16:25.749Z,3.63
2023-03-05T22:18:54.512Z,3.20
2023-03-05T22:21:28.741Z,3.40
2023-03-05T22:23:58.202Z,2.80
2023-03-05T22:26:27.130Z,3.40
2023-03-05T22:28:55.675Z,3.57
2023-03-05T22:31:25.298Z,2.83
2023-03-05T22:33:54.499Z,4.10
2023-03-05T22:36:22.943Z,3.50
2023-03-05T22:38:53.064Z,2.43
2023-03-05T22:41:21.598Z,3.90
2023-03-05T22:43:50.657Z,4.00
2023-03-05T22:46:20.372Z,3.20
2023-03-05T22:48:48.906Z,3.80
2023-03-05T22:51:17.696Z,3.73
2023-03-05T22:53:46.770Z,3.50
2023-03-05T22:56:17.645Z,3.27
2023-03-05T22:58:46.137Z,3.27
2023-03-05T23:01:14.981Z,3.03
2023-03-05T23:03:57.383Z,2.90
2023-03-05T23:06:26.319Z,3.77
2023-03-05T23:08:55.706Z,2.90
2023-03-05T23:11:25.549Z,2.70
2023-03-05T23:13:54.148Z,3.10
2023-03-05T23:16:22.713Z,2.57
2023-03-05T23:18:51.080Z,3.57
2023-03-05T23:21:19.708Z,3.13
2023-03-05T23:23:48.219Z,3.57
2023-03-05T23:26:16.733Z,2.60
2023-03-05T23:28:46.591Z,2.90
2023-03-05T23:31:15.121Z,3.63
2023-03-05T23:33:43.700Z,2.83
2023-03-05T23:36:12.818Z,3.80
2023-03-05T23:38:41.684Z,3.13
2023-03-05T23:41:11.502Z,3.40
2023-03-05T23:43:39.940Z,3.70
2023-03-05T23:46:13.777Z,3.43
2023-03-05T23:48:43.814Z,3.60
2023-03-05T23:51:12.542Z,3.43
2023-03-05T23:53:41.590Z,4.27
2023-03-05T23:56:11.176Z,3.20
2023-03-05T23:58:39.615Z,3.10
